Time;durP1;ratioP1;P1;durP2;ratioP2;P2;SDS_P1;SDS_P2;PMS_P1;PMS_P2;Temp;Humidity;BMP_temperature;BMP_pressure;BME280_temperature;BME280_humidity;BME280_pressure;Samples;Min_cycle;Max_cycle;Signal;HPM_P1;HPM_P2
2022/02/08 00:02:00;;;;;;;1999.90;999.90;;;;;;;-2.12;59.68;101978.72;5018014;27;98775;-71
2022/02/08 00:04:28;;;;;;;1999.90;999.90;;;;;;;-2.17;60.25;101980.00;5019344;27;97306;-71
2022/02/08 00:06:56;;;;;;;1999.90;999.90;;;;;;;-2.17;59.82;101980.00;5009849;27;101664;-71
2022/02/08 00:09:26;;;;;;;1999.90;999.90;;;;;;;-2.18;59.77;101975.53;5016476;27;97093;-69
2022/02/08 00:11:53;;;;;;;1999.90;999.90;;;;;;;-2.20;59.93;101978.78;5018984;27;97698;-70
2022/02/08 00:14:22;;;;;;;1999.90;999.90;;;;;;;-2.23;60.46;101979.41;5011172;27;97840;-71
2022/02/08 00:16:50;;;;;;;1999.90;999.90;;;;;;;-2.22;60.01;101983.88;5015644;27;97332;-69
2022/02/08 00:19:18;;;;;;;1999.90;999.90;;;;;;;-2.21;59.70;101988.28;5013277;27;99176;-70
2022/02/08 00:21:46;;;;;;;1999.90;999.90;;;;;;;-2.20;60.21;101995.31;5011505;27;99288;-71
2022/02/08 00:24:15;;;;;;;1999.90;999.90;;;;;;;-2.18;59.80;101995.50;5012409;27;98774;-70
2022/02/08 00:26:43;;;;;;;1999.90;999.90;;;;;;;-2.17;59.58;101989.50;5022328;27;97772;-70
2022/02/08 00:29:10;;;;;;;1999.90;999.90;;;;;;;-2.15;60.03;101996.72;5010996;27;99134;-71
2022/02/08 00:31:39;;;;;;;1999.90;999.90;;;;;;;-2.12;59.90;101991.75;5006920;27;98572;-71
2022/02/08 00:34:07;;;;;;;1999.90;999.90;;;;;;;-2.11;60.11;102005.72;5010878;27;98790;-70
2022/02/08 00:36:35;;;;;;;1999.90;999.90;;;;;;;-2.13;59.47;101995.16;5014021;27;97465;-70
2022/02/08 00:39:04;;;;;;;1999.90;999.90;;;;;;;-2.14;59.38;101995.91;5016105;27;97700;-69
2022/02/08 00:41:32;;;;;;;1999.90;999.90;;;;;;;-2.16;60.19;101989.66;4989990;27;100791;-71
2022/02/08 00:44:04;;;;;;;1999.90;999.90;;;;;;;-2.18;59.62;102001.59;5030426;27;100402;-69
2022/02/08 00:46:38;;;;;;;1999.90;999.90;;;;;;;-2.21;60.04;101985.69;5014835;27;96875;-68
2022/02/08 00:49:09;;;;;;;1999.90;999.90;;;;;;;-2.25;60.00;101986.19;5015203;27;97149;-70
2022/02/08 00:51:43;;;;;;;1999.90;999.90;;;;;;;-2.26;60.25;101994.78;5014919;27;97644;-71
2022/02/08 00:54:11;;;;;;;1999.90;999.90;;;;;;;-2.29;59.37;101999.69;5031171;27;98125;-69
2022/02/08 00:56:40;;;;;;;1999.90;999.90;;;;;;;-2.27;59.32;102008.56;5000422;28;99657;-70
2022/02/08 00:59:09;;;;;;;1999.90;999.90;;;;;;;-2.27;59.95;102018.13;4993602;27;97308;-69
2022/02/08 01:01:38;;;;;;;1999.90;999.90;;;;;;;-2.30;59.82;102008.31;5010201;27;99268;-70
2022/02/08 01:04:08;;;;;;;1999.90;999.90;;;;;;;-2.31;60.06;102005.56;5010856;27;100407;-71
2022/02/08 01:06:37;;;;;;;1999.90;999.90;;;;;;;-2.33;59.66;102010.66;5014006;27;97311;-71
2022/02/08 01:09:12;;;;;;;1999.90;999.90;;;;;;;-2.38;59.68;102009.28;5015803;27;99250;-71
2022/02/08 01:11:41;;;;;;;1999.90;999.90;;;;;;;-2.37;59.44;101992.88;5013578;27;99339;-70
2022/02/08 01:14:10;;;;;;;1999.90;999.90;;;;;;;-2.38;59.79;102001.47;5013089;27;97656;-70
2022/02/08 01:16:37;;;;;;;1999.90;999.90;;;;;;;-2.37;59.97;101991.97;5014888;27;96881;-69
2022/02/08 01:19:06;;;;;;;1999.90;999.90;;;;;;;-2.37;59.53;102002.38;5014863;27;97634;-70
2022/02/08 01:21:36;;;;;;;1999.90;999.90;;;;;;;-2.37;59.77;101998.09;5013278;27;98356;-71
2022/02/08 01:24:05;;;;;;;1999.90;999.90;;;;;;;-2.32;59.71;101995.91;5015631;27;99305;-70
2022/02/08 01:26:42;;;;;;;1999.90;999.90;;;;;;;-2.28;59.78;101996.34;5015542;27;97153;-69
2022/02/08 01:29:21;;;;;;;1999.90;999.90;;;;;;;-2.20;59.75;101994.44;5012178;27;96967;-70
2022/02/08 01:31:50;;;;;;;1999.90;999.90;;;;;;;-2.17;59.34;101994.72;5030483;27;100179;-71
2022/02/08 01:34:31;;;;;;;1999.90;999.90;;;;;;;-2.12;59.27;101990.84;4993149;27;100581;-69
2022/02/08 01:37:21;;;;;;;1999.90;999.90;;;;;;;-2.09;59.32;101979.00;5014388;27;96992;-70
2022/02/08 01:40:03;;;;;;;1999.90;999.90;;;;;;;-2.04;59.15;101977.75;5014027;27;97595;-69
2022/02/08 01:42:40;;;;;;;1999.90;999.90;;;;;;;-2.01;58.67;101970.19;4994420;27;97671;-69
2022/02/08 01:45:34;;;;;;;1999.90;999.90;;;;;;;-1.96;59.23;101976.72;5012147;27;101171;-70
2022/02/08 01:48:06;;;;;;;1999.90;999.90;;;;;;;-1.90;58.64;101974.66;4988519;27;97192;-70
2022/02/08 01:50:35;;;;;;;1999.90;999.90;;;;;;;-1.85;58.77;101968.16;4996568;27;99067;-69
2022/02/08 01:53:05;;;;;;;1999.90;999.90;;;;;;;-1.79;58.72;101954.75;4996832;27;98616;-69
2022/02/08 01:55:37;;;;;;;1999.90;999.90;;;;;;;-1.74;58.52;101955.19;4995876;27;100514;-69
2022/02/08 01:58:21;;;;;;;1999.90;999.90;;;;;;;-1.68;58.85;101958.31;4995657;27;97766;-70
2022/02/08 02:00:54;;;;;;;1999.90;999.90;;;;;;;-1.64;58.76;101960.41;5008746;27;97032;-68
2022/02/08 02:03:22;;;;;;;1999.90;999.90;;;;;;;-1.57;58.57;101962.78;5014086;27;99039;-69
2022/02/08 02:05:52;;;;;;;1999.90;999.90;;;;;;;-1.56;58.29;101959.41;5013054;27;100978;-69
2022/02/08 02:08:22;;;;;;;1999.90;999.90;;;;;;;-1.53;58.26;101959.66;4994348;27;98780;-70
2022/02/08 02:10:55;;;;;;;1999.90;999.90;;;;;;;-1.50;58.33;101960.84;5010081;27;96959;-70
2022/02/08 02:13:38;;;;;;;1999.90;999.90;;;;;;;-1.48;58.65;101956.69;5015265;27;97930;-70
2022/02/08 02:16:12;;;;;;;1999.90;999.90;;;;;;;-1.47;58.18;101947.16;5010381;27;98414;-69
2022/02/08 02:18:40;;;;;;;1999.90;999.90;;;;;;;-1.44;58.11;101950.03;5013724;27;98063;-68
2022/02/08 02:21:08;;;;;;;1999.90;999.90;;;;;;;-1.44;58.45;101947.41;4996923;27;98392;-71
2022/02/08 02:23:40;;;;;;;1999.90;999.90;;;;;;;-1.43;58.53;101938.81;4996939;27;99435;-71
2022/02/08 02:26:10;;;;;;;1999.90;999.90;;;;;;;-1.40;58.01;101931.25;4992887;27;97746;-71
2022/02/08 02:28:38;;;;;;;1999.90;999.90;;;;;;;-1.39;58.36;101933.06;4991809;27;97423;-70
2022/02/08 02:31:07;;;;;;;1999.90;999.90;;;;;;;-1.39;58.04;101940.88;4994816;27;97744;-71
2022/02/08 02:33:35;;;;;;;1999.90;999.90;;;;;;;-1.39;58.00;101944.44;4997712;27;99607;-69
2022/02/08 02:36:03;;;;;;;1999.90;999.90;;;;;;;-1.38;58.25;101940.13;5012023;27;97628;-70
2022/02/08 02:38:30;;;;;;;1999.90;999.90;;;;;;;-1.40;57.96;101937.38;5011400;27;99149;-69
2022/02/08 02:40:58;;;;;;;1999.90;999.90;;;;;;;-1.39;58.35;101930.44;5013934;27;98261;-71
2022/02/08 02:43:29;;;;;;;1999.90;999.90;;;;;;;-1.38;58.46;101934.91;4994819;27;98054;-69
2022/02/08 02:45:59;;;;;;;1999.90;999.90;;;;;;;-1.37;57.79;101931.50;5010620;27;98735;-69
2022/02/08 02:48:28;;;;;;;1999.90;999.90;;;;;;;-1.37;58.47;101941.94;4990734;27;98688;-69
2022/02/08 02:50:58;;;;;;;1999.90;999.90;;;;;;;-1.35;58.45;101929.94;5012367;27;97999;-69
2022/02/08 02:53:32;;;;;;;1999.90;999.90;;;;;;;-1.33;58.44;101936.22;4996146;27;100510;-71
2022/02/08 02:56:06;;;;;;;1999.90;999.90;;;;;;;-1.32;58.20;101931.13;4995694;27;99760;-69
2022/02/08 02:58:37;;;;;;;1999.90;999.90;;;;;;;-1.30;58.05;101926.03;5010180;27;98142;-71
2022/02/08 03:01:18;;;;;;;1999.90;999.90;;;;;;;-1.29;58.04;101917.44;4995484;27;100445;-71
2022/02/08 03:04:02;;;;;;;1999.90;999.90;;;;;;;-1.27;58.05;101921.97;4994489;27;99866;-71
2022/02/08 03:18:27;;;;;;;1999.90;999.90;;;;;;;-1.13;57.73;101905.81;5016773;27;99263;-70
2022/02/08 03:20:55;;;;;;;1999.90;999.90;;;;;;;-1.11;58.18;101912.09;4994954;27;97201;-69
2022/02/08 03:23:22;;;;;;;1999.90;999.90;;;;;;;-1.08;57.79;101906.19;5014310;27;97487;-70
2022/02/08 03:25:56;;;;;;;1999.90;999.90;;;;;;;-1.06;57.80;101910.78;4991272;27;103824;-70
2022/02/08 03:28:28;;;;;;;1999.90;999.90;;;;;;;-1.03;57.90;101911.03;5022566;27;98952;-70
2022/02/08 03:30:58;;;;;;;1999.90;999.90;;;;;;;-1.01;57.55;101906.84;5016449;27;97277;-70
2022/02/08 03:33:30;;;;;;;1999.90;999.90;;;;;;;-0.98;57.65;101911.44;5001701;27;97248;-70
2022/02/08 03:35:59;;;;;;;1999.90;999.90;;;;;;;-0.98;57.58;101912.34;5003725;27;99635;-70
2022/02/08 03:38:34;;;;;;;1999.90;999.90;;;;;;;-0.96;57.50;101902.03;5015892;27;98241;-70
2022/02/08 03:41:07;;;;;;;1999.90;999.90;;;;;;;-0.95;57.40;101901.22;4999571;27;97654;-71
2022/02/08 03:43:39;;;;;;;1999.90;999.90;;;;;;;-0.94;57.83;101895.25;4993925;27;98713;-69
2022/02/08 03:46:13;;;;;;;1999.90;999.90;;;;;;;-0.94;57.72;101890.03;4998609;27;98456;-70
2022/02/08 03:48:43;;;;;;;1999.90;999.90;;;;;;;-0.94;57.67;101895.25;5016550;27;100047;-70
2022/02/08 03:51:14;;;;;;;1999.90;999.90;;;;;;;-0.92;57.88;101891.03;5000156;27;97272;-70
2022/02/08 03:53:47;;;;;;;1999.90;999.90;;;;;;;-0.90;58.00;101893.00;4996441;27;98530;-71
2022/02/08 03:56:23;;;;;;;1999.90;999.90;;;;;;;-0.87;57.77;101894.97;5014085;27;98222;-69
2022/02/08 03:58:57;;;;;;;1999.90;999.90;;;;;;;-0.86;57.41;101888.94;5014760;27;97903;-68
2022/02/08 04:01:54;;;;;;;1999.90;999.90;;;;;;;-0.83;57.72;101889.22;4996038;27;97749;-69
2022/02/08 04:04:47;;;;;;;1999.90;999.90;;;;;;;-0.83;58.00;101889.22;5012773;27;97870;-68
2022/02/08 04:07:19;;;;;;;1999.90;999.90;;;;;;;-0.82;57.99;101876.28;5014003;27;99187;-68
2022/02/08 04:09:58;;;;;;;1999.90;999.90;;;;;;;-0.80;57.89;101879.00;5014689;27;98780;-69
2022/02/08 04:12:31;;;;;;;1999.90;999.90;;;;;;;-0.77;57.51;101874.03;5016629;27;98813;-69
2022/02/08 04:15:15;;;;;;;1999.90;999.90;;;;;;;-0.74;57.62;101869.09;5016758;27;98055;-69
2022/02/08 04:18:00;;;;;;;1999.90;999.90;;;;;;;-0.73;57.54;101863.06;5012922;27;97630;-69
2022/02/08 04:32:01;;;;;;;1999.90;999.90;;;;;;;-0.63;57.63;101865.66;5014623;27;97561;-69
2022/02/08 04:34:45;;;;;;;1999.90;999.90;;;;;;;-0.62;57.54;101866.56;5014479;27;97779;-69
2022/02/08 04:43:03;;;;;;;1999.90;999.90;;;;;;;-0.59;57.49;101849.41;5016768;27;98873;-69
2022/02/08 04:45:37;;;;;;;1999.90;999.90;;;;;;;-0.60;57.71;101850.22;5016213;27;97428;-69
2022/02/08 04:48:13;;;;;;;1999.90;999.90;;;;;;;-0.59;57.73;101846.81;5014348;27;96805;-70
2022/02/08 04:50:43;;;;;;;1999.90;999.90;;;;;;;-0.59;57.67;101844.19;5012080;27;100663;-70
2022/02/08 04:53:17;;;;;;;1999.90;999.90;;;;;;;-0.57;57.61;101853.06;5016734;27;98808;-69
2022/02/08 04:55:52;;;;;;;1999.90;999.90;;;;;;;-0.57;57.74;101837.41;5015057;27;97966;-69
2022/02/08 04:58:28;;;;;;;1999.90;999.90;;;;;;;-0.55;57.78;101838.44;5015442;27;97512;-72
2022/02/08 05:01:07;;;;;;;1999.90;999.90;;;;;;;-0.54;57.63;101839.38;5013962;27;99243;-70
2022/02/08 05:34:58;;;;;;;1999.90;999.90;;;;;;;-0.59;58.59;101822.41;5068961;27;98713;-70
2022/02/08 05:40:35;;;;;;;1999.90;999.90;;;;;;;-0.60;58.53;101821.47;5073079;27;97693;-70
2022/02/08 05:41:05;;;;;;;1999.90;999.90;;;;;;;-0.60;58.68;101813.63;5057845;27;97739;-70
2022/02/08 05:44:06;;;;;;;1999.90;999.90;;;;;;;-0.58;58.90;101839.88;5037490;27;96856;-70
2022/02/08 05:46:48;;;;;;;1999.90;999.90;;;;;;;-0.57;58.64;101816.50;5036352;27;97313;-69
2022/02/08 05:49:25;;;;;;;1999.90;999.90;;;;;;;-0.57;59.05;101826.94;5052864;27;99702;-69
2022/02/08 05:52:20;;;;;;;1999.90;999.90;;;;;;;-0.57;58.77;101821.72;5067385;27;99613;-69
2022/02/08 05:54:46;;;;;;;1999.90;999.90;;;;;;;-0.53;58.94;101815.94;5064375;27;98686;-69
2022/02/08 05:57:14;;;;;;;1999.90;999.90;;;;;;;-0.50;58.55;101813.56;5051342;27;98773;-69
2022/02/08 05:59:41;;;;;;;1999.90;999.90;;;;;;;-0.47;58.70;101800.78;5052447;27;97758;-69
2022/02/08 06:02:09;;;;;;;1999.90;999.90;;;;;;;-0.46;59.09;101802.59;5052703;27;97953;-70
2022/02/08 06:05:00;;;;;;;1999.90;999.90;;;;;;;-0.41;58.49;101808.22;5066589;27;98795;-70
2022/02/08 06:07:31;;;;;;;1999.90;999.90;;;;;;;-0.40;58.69;101790.03;5014997;27;97169;-70
2022/02/08 06:09:59;;;;;;;1999.90;999.90;;;;;;;-0.39;58.80;101796.19;5047291;27;97948;-69
2022/02/08 06:12:26;;;;;;;1999.90;999.90;;;;;;;-0.37;58.74;101790.25;5027801;27;98109;-69
2022/02/08 06:15:07;;;;;;;1999.90;999.90;;;;;;;-0.33;58.90;101799.25;5016749;27;100744;-70
2022/02/08 06:17:38;;;;;;;1999.90;999.90;;;;;;;-0.33;58.87;101783.56;5043362;27;98245;-70
2022/02/08 06:20:08;;;;;;;1999.90;999.90;;;;;;;-0.29;58.90;101777.81;5052384;27;97924;-69
2022/02/08 06:22:37;;;;;;;1999.90;999.90;;;;;;;-0.25;58.82;101783.41;5050420;27;98640;-70
2022/02/08 06:25:06;;;;;;;1999.90;999.90;;;;;;;-0.23;58.51;101776.56;5047729;27;99669;-69
2022/02/08 06:27:34;;;;;;;1999.90;999.90;;;;;;;-0.18;58.73;101787.44;5031346;27;97995;-70
2022/02/08 06:30:02;;;;;;;1999.90;999.90;;;;;;;-0.18;58.81;101790.03;5033463;27;97860;-69
2022/02/08 06:32:32;;;;;;;1999.90;999.90;;;;;;;-0.17;59.43;101784.00;5028365;27;98953;-69
2022/02/08 06:35:02;;;;;;;1999.90;999.90;;;;;;;-0.15;58.74;101788.56;5023189;27;98021;-72
2022/02/08 06:37:34;;;;;;;1999.90;999.90;;;;;;;-0.15;59.69;101785.97;5048036;27;98390;-69
2022/02/08 06:40:03;;;;;;;1999.90;999.90;;;;;;;-0.13;59.65;101787.00;5047262;27;99243;-70
2022/02/08 06:42:31;;;;;;;1999.90;999.90;;;;;;;-0.12;59.50;101787.91;5009698;27;99058;-70
2022/02/08 06:44:59;;;;;;;1999.90;999.90;;;;;;;-0.09;59.73;101794.31;5020311;27;98080;-69
2022/02/08 06:47:26;;;;;;;1999.90;999.90;;;;;;;-0.07;59.94;101797.97;5018680;27;98277;-70
2022/02/08 06:49:54;;;;;;;1999.90;999.90;;;;;;;-0.05;59.93;101785.91;5016134;27;99103;-71
2022/02/08 06:52:22;;;;;;;1999.90;999.90;;;;;;;-0.01;59.65;101793.19;5001309;27;99168;-71
2022/02/08 06:54:51;;;;;;;1999.90;999.90;;;;;;;0.05;58.94;101798.00;5049093;27;97268;-71
2022/02/08 06:57:19;;;;;;;1999.90;999.90;;;;;;;0.08;59.04;101790.41;5035824;27;97677;-70
2022/02/08 06:59:51;;;;;;;1999.90;999.90;;;;;;;0.11;59.43;101795.88;5019529;27;98123;-69
2022/02/08 07:02:19;;;;;;;1999.90;999.90;;;;;;;0.11;58.97;101788.94;5005488;27;100380;-69
2022/02/08 07:04:48;;;;;;;1999.90;999.90;;;;;;;0.13;59.18;101789.97;5002669;27;98898;-70
2022/02/08 07:07:16;;;;;;;1999.90;999.90;;;;;;;0.12;58.69;101782.91;4997818;27;99332;-70
2022/02/08 07:09:45;;;;;;;1999.90;999.90;;;;;;;0.13;59.43;101789.97;5030444;27;99759;-70
2022/02/08 07:12:14;;;;;;;1999.90;999.90;;;;;;;0.13;59.29;101782.13;5038142;27;97889;-70
2022/02/08 07:14:44;;;;;;;1999.90;999.90;;;;;;;0.14;59.11;101789.19;5012689;27;97559;-71
2022/02/08 07:17:12;;;;;;;1999.90;999.90;;;;;;;0.15;59.11;101784.88;5051382;27;100669;-70
2022/02/08 07:19:39;;;;;;;1999.90;999.90;;;;;;;0.16;59.11;101782.34;5020993;27;98576;-70
2022/02/08 07:22:07;;;;;;;1999.90;999.90;;;;;;;0.15;59.22;101784.88;5014504;27;100507;-70
2022/02/08 07:24:35;;;;;;;1999.90;999.90;;;;;;;0.15;59.15;101791.03;5050441;27;97278;-70
2022/02/08 07:27:03;;;;;;;1999.90;999.90;;;;;;;0.16;59.22;101799.75;5017418;27;96937;-70
2022/02/08 07:29:37;;;;;;;1999.90;999.90;;;;;;;0.17;58.95;101798.97;5035280;27;98782;-67
2022/02/08 07:32:07;;;;;;;1999.90;999.90;;;;;;;0.18;59.08;101790.31;4998497;27;99321;-71
2022/02/08 07:34:37;;;;;;;1999.90;999.90;;;;;;;0.17;59.20;101794.63;5033810;27;97265;-68
2022/02/08 07:37:11;;;;;;;1999.90;999.90;;;;;;;0.18;59.07;101796.47;5037402;27;97051;-70
2022/02/08 07:39:43;;;;;;;1999.90;999.90;;;;;;;0.16;59.29;101791.91;5012760;27;99407;-71
2022/02/08 07:42:11;;;;;;;1999.90;999.90;;;;;;;0.18;59.41;101792.94;5017571;27;100444;-73
2022/02/08 07:44:40;;;;;;;1999.90;999.90;;;;;;;0.18;59.25;101785.09;5013762;27;97219;-70
2022/02/08 07:47:16;;;;;;;1999.90;999.90;;;;;;;0.18;59.12;101782.47;5049133;27;98915;-70
2022/02/08 07:49:44;;;;;;;1999.90;999.90;;;;;;;0.20;59.12;101781.81;4993858;27;98664;-70
2022/02/08 07:52:11;;;;;;;1999.90;999.90;;;;;;;0.22;59.40;101774.06;5052257;27;99936;-70
2022/02/08 07:54:40;;;;;;;1999.90;999.90;;;;;;;0.21;59.87;101778.38;5047324;27;99453;-70
2022/02/08 07:57:08;;;;;;;1999.90;999.90;;;;;;;0.26;59.37;101788.34;5050964;27;97483;-69
2022/02/08 07:59:36;;;;;;;1999.90;999.90;;;;;;;0.27;59.15;101792.78;5018875;27;97062;-70
2022/02/08 08:02:05;;;;;;;1999.90;999.90;;;;;;;0.31;59.47;101797.47;5035293;27;100356;-70
2022/02/08 08:04:33;;;;;;;1999.90;999.90;;;;;;;0.32;59.52;101794.06;5017370;27;99756;-69
2022/02/08 08:07:01;;;;;;;1999.90;999.90;;;;;;;0.34;59.25;101798.63;5017567;27;97593;-70
2022/02/08 08:09:30;;;;;;;1999.90;999.90;;;;;;;0.38;59.25;101800.69;5036163;27;97013;-70
2022/02/08 08:11:58;;;;;;;1999.90;999.90;;;;;;;0.38;59.64;101797.16;5032546;27;99525;-70
2022/02/08 08:14:27;;;;;;;1999.90;999.90;;;;;;;0.40;59.79;101793.88;5002935;27;100149;-70
2022/02/08 08:17:00;;;;;;;1999.90;999.90;;;;;;;0.41;59.57;101800.03;5013183;27;97891;-70
2022/02/08 08:19:38;;;;;;;1999.90;999.90;;;;;;;0.41;60.24;101806.16;5035591;27;99100;-69
2022/02/08 08:22:07;;;;;;;1999.90;999.90;;;;;;;0.44;60.40;101810.72;5011072;27;98161;-70
2022/02/08 08:24:35;;;;;;;1999.90;999.90;;;;;;;0.48;60.06;101803.25;5035501;27;97943;-69
2022/02/08 08:27:05;;;;;;;1999.90;999.90;;;;;;;0.54;60.21;101798.44;5014078;27;99313;-70
2022/02/08 08:29:33;;;;;;;1999.90;999.90;;;;;;;0.58;60.72;101800.53;4998257;27;100571;-70
2022/02/08 08:32:04;;;;;;;1999.90;999.90;;;;;;;0.61;60.49;101787.66;5010718;27;99478;-70
2022/02/08 08:34:34;;;;;;;1999.90;999.90;;;;;;;0.68;60.38;101794.28;5002214;27;98893;-70
2022/02/08 08:37:03;;;;;;;1999.90;999.90;;;;;;;0.76;60.88;101790.53;5001468;27;98468;-70
2022/02/08 08:39:37;;;;;;;1999.90;999.90;;;;;;;0.81;61.24;101790.09;5011216;27;99037;-70
2022/02/08 08:42:21;;;;;;;1999.90;999.90;;;;;;;0.88;60.70;101801.97;5031405;27;98747;-70
2022/02/08 08:48:24;;;;;;;1999.90;999.90;;;;;;;0.92;61.03;101797.06;5018137;27;96921;-70
2022/02/08 08:50:55;;;;;;;1999.90;999.90;;;;;;;1.07;60.21;101795.59;5050548;27;97611;-71
2022/02/08 08:53:25;;;;;;;1999.90;999.90;;;;;;;1.12;60.71;101782.84;5018304;27;100337;-68
2022/02/08 08:55:53;;;;;;;1999.90;999.90;;;;;;;1.14;60.67;101784.75;5031719;27;96883;-69
2022/02/08 08:58:21;;;;;;;1999.90;999.90;;;;;;;1.20;60.25;101782.59;5009855;27;97002;-68
2022/02/08 09:00:48;;;;;;;1999.90;999.90;;;;;;;1.20;60.55;101787.84;5044161;27;97921;-68
2022/02/08 09:03:16;;;;;;;1999.90;999.90;;;;;;;1.23;61.19;101774.06;5010199;27;100883;-68
2022/02/08 09:05:45;;;;;;;1999.90;999.90;;;;;;;1.25;60.81;101790.84;5009995;27;98375;-70
2022/02/08 09:08:13;;;;;;;1999.90;999.90;;;;;;;1.29;60.90;101792.84;5012200;27;96905;-70
2022/02/08 09:10:49;;;;;;;1999.90;999.90;;;;;;;1.34;60.69;101781.03;5045251;27;100063;-71
2022/02/08 09:13:26;;;;;;;1999.90;999.90;;;;;;;1.35;60.84;101793.31;5033937;27;99745;-69
2022/02/08 09:16:08;;;;;;;1999.90;999.90;;;;;;;1.39;60.90;101779.66;5012100;27;98194;-70
2022/02/08 09:19:21;;;;;;;1999.90;999.90;;;;;;;1.43;60.38;101765.97;5028055;27;99394;-69
2022/02/08 09:28:03;;;;;;;1999.90;999.90;;;;;;;1.54;61.17;101764.13;5085649;27;97374;-70
2022/02/08 09:30:36;;;;;;;1999.90;999.90;;;;;;;1.61;61.34;101777.78;5043932;27;98814;-69
2022/02/08 09:33:04;;;;;;;1999.90;999.90;;;;;;;1.66;60.79;101765.91;5041474;27;99838;-70
2022/02/08 09:35:32;;;;;;;1999.90;999.90;;;;;;;1.72;60.78;101771.63;5022308;27;98746;-71
2022/02/08 09:38:00;;;;;;;1999.90;999.90;;;;;;;1.74;60.39;101767.38;5053670;27;97350;-70
2022/02/08 09:40:30;;;;;;;1999.90;999.90;;;;;;;1.76;60.78;101768.38;5041189;27;99723;-69
2022/02/08 09:42:59;;;;;;;1999.90;999.90;;;;;;;1.77;61.29;101791.22;5037069;27;97756;-69
2022/02/08 09:45:29;;;;;;;1999.90;999.90;;;;;;;1.76;61.33;101799.88;5033445;27;99172;-69
2022/02/08 09:48:01;;;;;;;1999.90;999.90;;;;;;;1.75;61.15;101774.44;5042228;27;97092;-70
2022/02/08 09:50:33;;;;;;;1999.90;999.90;;;;;;;1.76;61.62;101771.00;5036866;27;98102;-70
2022/02/08 09:53:06;;;;;;;1999.90;999.90;;;;;;;1.75;62.07;101774.44;5029997;27;98617;-70
2022/02/08 09:55:38;;;;;;;1999.90;999.90;;;;;;;1.78;61.37;101764.16;5031078;27;97562;-69
2022/02/08 09:58:06;;;;;;;1999.90;999.90;;;;;;;1.77;61.40;101754.47;5050700;27;99378;-70
2022/02/08 10:00:35;;;;;;;1999.90;999.90;;;;;;;1.80;61.83;101759.94;5033552;27;101013;-69
2022/02/08 10:03:05;;;;;;;1999.90;999.90;;;;;;;1.80;61.89;101765.19;5042551;27;100408;-70
2022/02/08 10:05:43;;;;;;;1999.90;999.90;;;;;;;1.86;62.13;101764.72;5047671;27;98109;-69
2022/02/08 10:08:12;;;;;;;1999.90;999.90;;;;;;;1.88;61.58;101811.28;5032472;27;98864;-70
2022/02/08 10:10:42;;;;;;;1999.90;999.90;;;;;;;1.88;61.39;101776.22;5052794;27;100386;-69
2022/02/08 10:13:30;;;;;;;1999.90;999.90;;;;;;;1.91;62.20;101758.06;5031666;27;99422;-70
2022/02/08 10:19:04;;;;;;;1999.90;999.90;;;;;;;2.01;61.38;101782.47;5026804;27;97564;-70
2022/02/08 10:21:48;;;;;;;1999.90;999.90;;;;;;;2.06;61.69;101783.72;5035568;27;99216;-70
2022/02/08 10:24:17;;;;;;;1999.90;999.90;;;;;;;2.09;61.29;101789.19;5043854;27;100096;-68
2022/02/08 10:27:02;;;;;;;1999.90;999.90;;;;;;;2.11;61.31;101771.84;5042613;27;99117;-70
2022/02/08 10:29:39;;;;;;;1999.90;999.90;;;;;;;2.19;60.91;101783.81;5029498;27;99444;-68
2022/02/08 10:37:45;;;;;;;1999.90;999.90;;;;;;;2.30;60.72;101794.16;5027613;27;99349;-69
2022/02/08 10:40:16;;;;;;;1999.90;999.90;;;;;;;2.34;61.22;101777.81;5034063;27;99180;-70
2022/02/08 10:42:51;;;;;;;1999.90;999.90;;;;;;;2.37;61.30;101791.13;5021759;27;100107;-70
2022/02/08 10:45:21;;;;;;;1999.90;999.90;;;;;;;2.41;61.15;101790.56;5002776;27;99935;-69
2022/02/08 10:47:55;;;;;;;1999.90;999.90;;;;;;;2.46;60.86;101783.91;5020145;27;98756;-70
2022/02/08 10:50:24;;;;;;;1999.90;999.90;;;;;;;2.52;60.61;101777.38;5036027;27;98988;-70
2022/02/08 10:52:52;;;;;;;1999.90;999.90;;;;;;;2.56;60.29;101770.59;5050722;27;100697;-70
2022/02/08 10:55:31;;;;;;;1999.90;999.90;;;;;;;2.63;60.19;101780.72;5012739;27;100209;-70
2022/02/08 10:58:11;;;;;;;1999.90;999.90;;;;;;;2.97;59.30;101758.53;5040319;27;97146;-70
2022/02/08 11:00:44;;;;;;;1999.90;999.90;;;;;;;2.89;60.46;101762.41;5016364;27;97086;-70
2022/02/08 11:03:17;;;;;;;1999.90;999.90;;;;;;;2.93;60.48;101753.91;5016576;27;99153;-69
2022/02/08 11:05:58;;;;;;;1999.90;999.90;;;;;;;2.94;60.53;101759.28;5016962;27;98197;-70
2022/02/08 11:08:39;;;;;;;1999.90;999.90;;;;;;;2.97;60.33;101738.44;5019890;27;97437;-70
2022/02/08 11:11:39;;;;;;;1999.90;999.90;;;;;;;3.01;60.49;101748.34;5027612;27;98793;-70
2022/02/08 11:14:22;;;;;;;1999.90;999.90;;;;;;;3.08;59.96;101750.56;5030387;27;97004;-70
2022/02/08 11:20:04;;;;;;;1999.90;999.90;;;;;;;3.19;60.06;101774.94;4995174;28;99180;-70
2022/02/08 11:22:43;;;;;;;1999.90;999.90;;;;;;;3.26;59.52;101756.13;5013092;27;97938;-70
2022/02/08 11:25:19;;;;;;;1999.90;999.90;;;;;;;3.35;59.53;101755.84;5027085;27;99080;-70
2022/02/08 11:27:51;;;;;;;1999.90;999.90;;;;;;;3.41;59.56;101743.06;5017180;27;99382;-70
2022/02/08 11:30:40;;;;;;;1999.90;999.90;;;;;;;3.44;59.60;101759.97;5002395;27;97635;-70
2022/02/08 11:33:41;;;;;;;1999.90;999.90;;;;;;;3.52;59.25;101766.63;5052692;27;97498;-70
2022/02/08 11:44:53;;;;;;;1999.90;999.90;;;;;;;3.79;58.90;101736.84;4995771;27;97949;-69
2022/02/08 11:47:51;;;;;;;1999.90;999.90;;;;;;;3.82;58.72;101744.97;5054083;27;99127;-68
2022/02/08 11:53:23;;;;;;;1999.90;999.90;;;;;;;3.86;59.03;101743.44;5045375;27;99300;-68
2022/02/08 11:58:52;;;;;;;1999.90;999.90;;;;;;;3.94;58.79;101716.78;4985168;27;99717;-69
2022/02/08 12:01:35;;;;;;;1999.90;999.90;;;;;;;4.26;57.98;101717.84;5016222;27;99034;-69
2022/02/08 12:04:34;;;;;;;1999.90;999.90;;;;;;;4.10;58.49;101751.13;5016359;27;98616;-68
2022/02/08 12:07:09;;;;;;;1999.90;999.90;;;;;;;4.08;58.60;101721.16;5014108;27;98737;-68
2022/02/08 12:09:44;;;;;;;1999.90;999.90;;;;;;;4.14;58.70;101723.25;4987266;27;99260;-68
2022/02/08 12:50:05;;;;;;;1999.90;999.90;;;;;;;4.84;57.30;101757.44;5003119;27;97389;-68
2022/02/08 12:58:26;;;;;;;1999.90;999.90;;;;;;;4.65;57.42;101731.72;5016304;27;98883;-68
2022/02/08 13:01:21;;;;;;;1999.90;999.90;;;;;;;4.96;56.74;101715.97;5013992;27;97558;-69
2022/02/08 13:03:59;;;;;;;1999.90;999.90;;;;;;;4.73;57.35;101774.34;5023812;27;96905;-68
2022/02/08 13:16:02;;;;;;;1999.90;999.90;;;;;;;5.05;56.59;101724.44;5017041;27;97652;-69
2022/02/08 14:03:08;;;;;;;1999.90;999.90;;;;;;;4.64;58.00;101737.81;5055273;27;98671;-69
2022/02/08 14:08:51;;;;;;;1999.90;999.90;;;;;;;4.63;58.12;101771.97;4981715;28;97858;-69
2022/02/08 14:11:47;;;;;;;1999.90;999.90;;;;;;;4.60;57.95;101755.97;4976160;28;97375;-69
2022/02/08 14:14:29;;;;;;;1999.90;999.90;;;;;;;4.60;57.99;101745.44;5020589;27;97673;-70
2022/02/08 14:17:32;;;;;;;1999.90;999.90;;;;;;;4.59;57.97;101762.97;5022082;27;100599;-70
2022/02/08 14:25:45;;;;;;;1999.90;999.90;;;;;;;4.54;58.63;101772.31;5002097;27;98827;-68
2022/02/08 14:31:07;;;;;;;1999.90;999.90;;;;;;;4.43;58.66;101783.94;5025756;27;98787;-68
2022/02/08 14:34:06;;;;;;;1999.90;999.90;;;;;;;4.41;58.85;101784.69;5023958;27;97866;-69
2022/02/08 14:37:15;;;;;;;1999.90;999.90;;;;;;;4.36;59.42;101792.28;5026987;27;99427;-69
2022/02/08 15:08:00;;;;;;;1999.90;999.90;;;;;;;3.87;61.41;101809.34;5018635;27;98058;-70
2022/02/08 15:10:37;;;;;;;1999.90;999.90;;;;;;;3.85;61.04;101815.31;5022012;27;101068;-70
2022/02/08 15:13:06;;;;;;;1999.90;999.90;;;;;;;3.81;61.19;101806.31;5015388;27;97635;-70